sensor_id;sensor_type;location;lat;lon;timestamp;temperature;humidity
46490;DHT22;32204;49.160;8.580;2023-04-03T00:02:09;6.10;1.00
46490;DHT22;32204;49.160;8.580;2023-04-03T00:04:34;6.00;1.00
46490;DHT22;32204;49.160;8.580;2023-04-03T00:07:00;6.00;22.00
46490;DHT22;32204;49.160;8.580;2023-04-03T00:09:26;6.00;31.10
46490;DHT22;32204;49.160;8.580;2023-04-03T00:11:51;6.00;97.00
46490;DHT22;32204;49.160;8.580;2023-04-03T00:14:17;5.90;93.10
46490;DHT22;32204;49.160;8.580;2023-04-03T00:16:42;5.90;99.90
46490;DHT22;32204;49.160;8.580;2023-04-03T00:19:08;5.90;99.90
46490;DHT22;32204;49.160;8.580;2023-04-03T00:21:37;5.90;99.90
46490;DHT22;32204;49.160;8.580;2023-04-03T00:24:02;5.90;99.90
46490;DHT22;32204;49.160;8.580;2023-04-03T00:26:28;5.90;99.90
46490;DHT22;32204;49.160;8.580;2023-04-03T00:28:53;6.00;99.90
46490;DHT22;32204;49.160;8.580;2023-04-03T00:31:19;6.10;99.90
46490;DHT22;32204;49.160;8.580;2023-04-03T00:33:45;6.10;99.90
46490;DHT22;32204;49.160;8.580;2023-04-03T00:36:11;6.10;99.90
46490;DHT22;32204;49.160;8.580;2023-04-03T00:38:37;6.10;1.00
46490;DHT22;32204;49.160;8.580;2023-04-03T00:41:03;6.20;99.90
46490;DHT22;32204;49.160;8.580;2023-04-03T00:43:29;6.10;1.00
46490;DHT22;32204;49.160;8.580;2023-04-03T00:45:56;6.20;99.90
46490;DHT22;32204;49.160;8.580;2023-04-03T00:48:31;6.10;99.90
46490;DHT22;32204;49.160;8.580;2023-04-03T00:50:59;6.00;1.00
46490;DHT22;32204;49.160;8.580;2023-04-03T00:53:30;5.90;1.00
46490;DHT22;32204;49.160;8.580;2023-04-03T00:55:58;5.80;1.00
46490;DHT22;32204;49.160;8.580;2023-04-03T00:58:37;5.90;99.90
46490;DHT22;32204;49.160;8.580;2023-04-03T01:01:05;5.90;65.80
46490;DHT22;32204;49.160;8.580;2023-04-03T01:03:31;5.90;1.00
46490;DHT22;32204;49.160;8.580;2023-04-03T01:05:57;5.90;1.00
46490;DHT22;32204;49.160;8.580;2023-04-03T01:08:23;5.90;58.50
46490;DHT22;32204;49.160;8.580;2023-04-03T01:10:49;6.00;1.00
46490;DHT22;32204;49.160;8.580;2023-04-03T01:13:24;6.10;1.00
46490;DHT22;32204;49.160;8.580;2023-04-03T01:15:50;6.20;1.00
46490;DHT22;32204;49.160;8.580;2023-04-03T01:18:16;6.20;99.90
46490;DHT22;32204;49.160;8.580;2023-04-03T01:26:39;5.90;1.00
46490;DHT22;32204;49.160;8.580;2023-04-03T01:29:05;6.00;1.00
46490;DHT22;32204;49.160;8.580;2023-04-03T01:34:08;5.80;28.80
46490;DHT22;32204;49.160;8.580;2023-04-03T01:36:34;5.70;1.00
46490;DHT22;32204;49.160;8.580;2023-04-03T01:39:00;5.60;1.00
46490;DHT22;32204;49.160;8.580;2023-04-03T01:41:26;5.60;73.20
46490;DHT22;32204;49.160;8.580;2023-04-03T01:43:52;5.60;99.90
46490;DHT22;32204;49.160;8.580;2023-04-03T01:46:18;5.60;39.30
46490;DHT22;32204;49.160;8.580;2023-04-03T01:48:44;5.50;99.90
46490;DHT22;32204;49.160;8.580;2023-04-03T01:51:10;5.30;52.80
46490;DHT22;32204;49.160;8.580;2023-04-03T01:53:35;5.30;99.90
46490;DHT22;32204;49.160;8.580;2023-04-03T01:56:01;5.20;99.90
46490;DHT22;32204;49.160;8.580;2023-04-03T01:58:27;5.10;99.90
46490;DHT22;32204;49.160;8.580;2023-04-03T02:00:52;5.00;1.00
46490;DHT22;32204;49.160;8.580;2023-04-03T02:03:18;5.10;1.00
46490;DHT22;32204;49.160;8.580;2023-04-03T02:05:44;5.20;99.90
46490;DHT22;32204;49.160;8.580;2023-04-03T02:08:10;5.20;99.90
46490;DHT22;32204;49.160;8.580;2023-04-03T02:10:36;5.30;99.90
46490;DHT22;32204;49.160;8.580;2023-04-03T02:13:02;5.40;99.90
46490;DHT22;32204;49.160;8.580;2023-04-03T02:15:27;5.40;99.90
46490;DHT22;32204;49.160;8.580;2023-04-03T02:17:53;5.40;99.90
46490;DHT22;32204;49.160;8.580;2023-04-03T02:20:19;5.30;99.90
46490;DHT22;32204;49.160;8.580;2023-04-03T02:22:45;5.20;99.90
46490;DHT22;32204;49.160;8.580;2023-04-03T02:25:10;5.00;99.90
46490;DHT22;32204;49.160;8.580;2023-04-03T02:27:36;5.00;99.90
46490;DHT22;32204;49.160;8.580;2023-04-03T02:30:03;5.00;1.00
46490;DHT22;32204;49.160;8.580;2023-04-03T02:32:29;5.00;99.90
46490;DHT22;32204;49.160;8.580;2023-04-03T02:34:54;5.00;99.90
46490;DHT22;32204;49.160;8.580;2023-04-03T02:37:20;5.00;1.00
46490;DHT22;32204;49.160;8.580;2023-04-03T02:39:46;5.00;99.90
46490;DHT22;32204;49.160;8.580;2023-04-03T02:42:12;4.70;99.90
46490;DHT22;32204;49.160;8.580;2023-04-03T02:44:38;4.80;1.00
46490;DHT22;32204;49.160;8.580;2023-04-03T02:47:04;4.90;1.00
46490;DHT22;32204;49.160;8.580;2023-04-03T02:49:33;4.80;99.90
46490;DHT22;32204;49.160;8.580;2023-04-03T02:51:59;4.80;1.00
46490;DHT22;32204;49.160;8.580;2023-04-03T02:54:25;4.80;99.90
46490;DHT22;32204;49.160;8.580;2023-04-03T02:56:53;4.90;1.00
46490;DHT22;32204;49.160;8.580;2023-04-03T02:59:19;5.10;99.90
46490;DHT22;32204;49.160;8.580;2023-04-03T03:01:45;5.00;99.90
46490;DHT22;32204;49.160;8.580;2023-04-03T03:04:11;5.10;1.00
46490;DHT22;32204;49.160;8.580;2023-04-03T03:06:36;5.30;1.00
46490;DHT22;32204;49.160;8.580;2023-04-03T03:09:02;5.30;99.90
46490;DHT22;32204;49.160;8.580;2023-04-03T03:11:29;5.30;99.90
46490;DHT22;32204;49.160;8.580;2023-04-03T03:13:55;5.30;99.90
46490;DHT22;32204;49.160;8.580;2023-04-03T03:16:20;5.30;1.00
46490;DHT22;32204;49.160;8.580;2023-04-03T03:18:46;5.40;1.00
46490;DHT22;32204;49.160;8.580;2023-04-03T03:21:11;5.40;1.00
46490;DHT22;32204;49.160;8.580;2023-04-03T03:23:37;5.40;1.00
46490;DHT22;32204;49.160;8.580;2023-04-03T03:26:05;5.50;1.00
46490;DHT22;32204;49.160;8.580;2023-04-03T03:28:31;5.50;99.90
46490;DHT22;32204;49.160;8.580;2023-04-03T03:30:58;5.50;99.90
46490;DHT22;32204;49.160;8.580;2023-04-03T03:33:24;5.40;99.90
46490;DHT22;32204;49.160;8.580;2023-04-03T03:35:51;5.30;99.90
46490;DHT22;32204;49.160;8.580;2023-04-03T03:38:17;5.10;99.90
46490;DHT22;32204;49.160;8.580;2023-04-03T03:40:42;5.00;99.90
46490;DHT22;32204;49.160;8.580;2023-04-03T03:43:08;4.90;99.90
46490;DHT22;32204;49.160;8.580;2023-04-03T03:45:34;4.80;1.00
46490;DHT22;32204;49.160;8.580;2023-04-03T03:48:01;4.80;1.00
46490;DHT22;32204;49.160;8.580;2023-04-03T03:50:27;4.80;1.00
46490;DHT22;32204;49.160;8.580;2023-04-03T03:52:53;4.90;1.00
46490;DHT22;32204;49.160;8.580;2023-04-03T03:55:19;4.90;99.90
46490;DHT22;32204;49.160;8.580;2023-04-03T03:57:45;4.90;1.00
46490;DHT22;32204;49.160;8.580;2023-04-03T04:00:10;4.90;1.00
46490;DHT22;32204;49.160;8.580;2023-04-03T04:02:36;4.90;99.90
46490;DHT22;32204;49.160;8.580;2023-04-03T04:05:02;4.90;99.90
46490;DHT22;32204;49.160;8.580;2023-04-03T04:07:28;4.90;99.90
46490;DHT22;32204;49.160;8.580;2023-04-03T04:09:54;5.00;99.90
46490;DHT22;32204;49.160;8.580;2023-04-03T04:12:20;5.10;26.70
46490;DHT22;32204;49.160;8.580;2023-04-03T04:14:46;5.10;1.00
46490;DHT22;32204;49.160;8.580;2023-04-03T04:17:15;5.10;1.00
46490;DHT22;32204;49.160;8.580;2023-04-03T04:19:41;5.00;25.80
46490;DHT22;32204;49.160;8.580;2023-04-03T04:22:06;4.80;99.90
46490;DHT22;32204;49.160;8.580;2023-04-03T04:24:32;4.70;99.90
46490;DHT22;32204;49.160;8.580;2023-04-03T04:26:58;4.70;99.90
46490;DHT22;32204;49.160;8.580;2023-04-03T04:29:23;4.70;99.90
46490;DHT22;32204;49.160;8.580;2023-04-03T04:31:49;4.60;99.90
46490;DHT22;32204;49.160;8.580;2023-04-03T04:34:15;4.50;99.90
46490;DHT22;32204;49.160;8.580;2023-04-03T04:36:41;4.40;99.90
46490;DHT22;32204;49.160;8.580;2023-04-03T04:39:06;4.30;1.00
46490;DHT22;32204;49.160;8.580;2023-04-03T04:41:32;4.10;99.90
46490;DHT22;32204;49.160;8.580;2023-04-03T04:43:58;4.20;99.90
46490;DHT22;32204;49.160;8.580;2023-04-03T04:46:24;4.10;99.90
46490;DHT22;32204;49.160;8.580;2023-04-03T04:48:49;4.20;99.90
46490;DHT22;32204;49.160;8.580;2023-04-03T04:51:15;4.00;99.90
46490;DHT22;32204;49.160;8.580;2023-04-03T04:53:41;3.90;1.00
46490;DHT22;32204;49.160;8.580;2023-04-03T04:56:08;3.90;1.00
46490;DHT22;32204;49.160;8.580;2023-04-03T04:58:34;3.70;99.90
46490;DHT22;32204;49.160;8.580;2023-04-03T05:01:00;3.80;99.90
46490;DHT22;32204;49.160;8.580;2023-04-03T05:03:26;3.80;99.90
46490;DHT22;32204;49.160;8.580;2023-04-03T05:05:52;3.70;99.90
46490;DHT22;32204;49.160;8.580;2023-04-03T05:08:18;3.60;99.90
46490;DHT22;32204;49.160;8.580;2023-04-03T05:10:45;3.50;99.90
46490;DHT22;32204;49.160;8.580;2023-04-03T05:13:11;3.40;1.00
46490;DHT22;32204;49.160;8.580;2023-04-03T05:15:37;3.40;95.90
46490;DHT22;32204;49.160;8.580;2023-04-03T05:18:02;3.40;99.90
46490;DHT22;32204;49.160;8.580;2023-04-03T05:20:28;3.50;99.90
46490;DHT22;32204;49.160;8.580;2023-04-03T05:22:54;3.50;1.00
46490;DHT22;32204;49.160;8.580;2023-04-03T05:25:19;3.60;99.90
46490;DHT22;32204;49.160;8.580;2023-04-03T05:27:45;3.80;99.90
46490;DHT22;32204;49.160;8.580;2023-04-03T05:30:11;3.70;49.30
46490;DHT22;32204;49.160;8.580;2023-04-03T05:32:37;3.80;99.90
46490;DHT22;32204;49.160;8.580;2023-04-03T05:35:03;3.70;99.90
46490;DHT22;32204;49.160;8.580;2023-04-03T05:37:28;3.90;99.90
46490;DHT22;32204;49.160;8.580;2023-04-03T05:39:54;3.90;76.90
46490;DHT22;32204;49.160;8.580;2023-04-03T05:42:20;3.90;1.00
46490;DHT22;32204;49.160;8.580;2023-04-03T05:44:49;3.90;99.90
46490;DHT22;32204;49.160;8.580;2023-04-03T05:47:16;3.90;1.00
46490;DHT22;32204;49.160;8.580;2023-04-03T05:49:41;3.80;78.60
46490;DHT22;32204;49.160;8.580;2023-04-03T05:52:31;3.80;99.90
46490;DHT22;32204;49.160;8.580;2023-04-03T05:54:58;3.60;99.90
46490;DHT22;32204;49.160;8.580;2023-04-03T05:57:24;3.70;99.90
46490;DHT22;32204;49.160;8.580;2023-04-03T05:59:50;3.70;99.90
46490;DHT22;32204;49.160;8.580;2023-04-03T06:02:18;3.80;99.90
46490;DHT22;32204;49.160;8.580;2023-04-03T06:04:45;3.90;99.90
46490;DHT22;32204;49.160;8.580;2023-04-03T06:07:13;4.00;99.90
46490;DHT22;32204;49.160;8.580;2023-04-03T06:09:41;4.30;1.00
46490;DHT22;32204;49.160;8.580;2023-04-03T06:12:06;4.40;99.90
46490;DHT22;32204;49.160;8.580;2023-04-03T06:14:32;4.50;99.90
46490;DHT22;32204;49.160;8.580;2023-04-03T06:16:58;4.60;99.90
46490;DHT22;32204;49.160;8.580;2023-04-03T06:19:24;4.80;99.90
46490;DHT22;32204;49.160;8.580;2023-04-03T06:21:51;5.20;99.90
46490;DHT22;32204;49.160;8.580;2023-04-03T06:24:17;5.50;86.70
46490;DHT22;32204;49.160;8.580;2023-04-03T06:26:44;5.20;1.00
46490;DHT22;32204;49.160;8.580;2023-04-03T06:29:09;5.10;99.90
46490;DHT22;32204;49.160;8.580;2023-04-03T06:31:35;5.20;99.90
46490;DHT22;32204;49.160;8.580;2023-04-03T06:34:02;5.30;99.90
46490;DHT22;32204;49.160;8.580;2023-04-03T06:36:28;5.70;99.90
46490;DHT22;32204;49.160;8.580;2023-04-03T06:38:54;6.20;99.90
46490;DHT22;32204;49.160;8.580;2023-04-03T06:41:20;6.50;99.90
46490;DHT22;32204;49.160;8.580;2023-04-03T06:43:46;7.50;1.00
46490;DHT22;32204;49.160;8.580;2023-04-03T06:46:20;8.00;99.90
46490;DHT22;32204;49.160;8.580;2023-04-03T06:48:46;9.60;99.90
46490;DHT22;32204;49.160;8.580;2023-04-03T06:51:26;9.80;92.50
46490;DHT22;32204;49.160;8.580;2023-04-03T06:53:54;9.80;54.20
46490;DHT22;32204;49.160;8.580;2023-04-03T06:56:20;9.20;44.00
46490;DHT22;32204;49.160;8.580;2023-04-03T06:58:46;8.20;99.90
46490;DHT22;32204;49.160;8.580;2023-04-03T07:01:14;7.40;99.90
46490;DHT22;32204;49.160;8.580;2023-04-03T07:03:40;6.80;1.00
46490;DHT22;32204;49.160;8.580;2023-04-03T07:06:07;6.30;11.60
46490;DHT22;32204;49.160;8.580;2023-04-03T07:08:33;6.10;99.90
46490;DHT22;32204;49.160;8.580;2023-04-03T07:11:00;6.30;99.90
46490;DHT22;32204;49.160;8.580;2023-04-03T07:13:26;6.20;99.90
46490;DHT22;32204;49.160;8.580;2023-04-03T07:15:52;6.10;99.90
46490;DHT22;32204;49.160;8.580;2023-04-03T07:18:18;6.00;1.00
46490;DHT22;32204;49.160;8.580;2023-04-03T07:20:44;5.90;20.00
46490;DHT22;32204;49.160;8.580;2023-04-03T07:23:10;5.80;99.90
46490;DHT22;32204;49.160;8.580;2023-04-03T07:25:36;5.90;99.90
46490;DHT22;32204;49.160;8.580;2023-04-03T07:28:03;5.70;99.90
46490;DHT22;32204;49.160;8.580;2023-04-03T07:30:29;5.80;1.00
46490;DHT22;32204;49.160;8.580;2023-04-03T07:32:55;5.80;33.60
46490;DHT22;32204;49.160;8.580;2023-04-03T07:35:20;5.90;1.00
46490;DHT22;32204;49.160;8.580;2023-04-03T07:37:46;5.90;1.00
46490;DHT22;32204;49.160;8.580;2023-04-03T07:40:12;6.00;99.90
46490;DHT22;32204;49.160;8.580;2023-04-03T07:42:38;6.00;1.00
46490;DHT22;32204;49.160;8.580;2023-04-03T07:45:04;6.10;99.90
46490;DHT22;32204;49.160;8.580;2023-04-03T07:47:30;6.00;99.90
46490;DHT22;32204;49.160;8.580;2023-04-03T07:49:56;6.10;1.00
46490;DHT22;32204;49.160;8.580;2023-04-03T07:52:22;6.30;99.90
46490;DHT22;32204;49.160;8.580;2023-04-03T07:54:48;6.40;99.90
46490;DHT22;32204;49.160;8.580;2023-04-03T07:57:14;6.40;99.90
46490;DHT22;32204;49.160;8.580;2023-04-03T07:59:40;6.50;99.90
46490;DHT22;32204;49.160;8.580;2023-04-03T08:02:09;6.50;99.90
46490;DHT22;32204;49.160;8.580;2023-04-03T08:04:35;6.50;38.10
46490;DHT22;32204;49.160;8.580;2023-04-03T08:07:01;6.60;1.00
46490;DHT22;32204;49.160;8.580;2023-04-03T08:09:27;6.60;1.00
46490;DHT22;32204;49.160;8.580;2023-04-03T08:11:52;6.60;1.00
46490;DHT22;32204;49.160;8.580;2023-04-03T08:14:19;6.70;99.90
46490;DHT22;32204;49.160;8.580;2023-04-03T08:16:46;6.70;99.90
46490;DHT22;32204;49.160;8.580;2023-04-03T08:19:12;6.80;54.70
46490;DHT22;32204;49.160;8.580;2023-04-03T08:21:40;7.00;16.20
46490;DHT22;32204;49.160;8.580;2023-04-03T08:24:07;7.10;61.80
46490;DHT22;32204;49.160;8.580;2023-04-03T08:26:33;7.10;1.00
46490;DHT22;32204;49.160;8.580;2023-04-03T08:28:59;6.90;1.00
46490;DHT22;32204;49.160;8.580;2023-04-03T08:31:25;7.00;1.00
46490;DHT22;32204;49.160;8.580;2023-04-03T08:33:50;7.10;1.00
46490;DHT22;32204;49.160;8.580;2023-04-03T08:36:27;7.10;1.00
46490;DHT22;32204;49.160;8.580;2023-04-03T08:38:55;7.10;1.00
46490;DHT22;32204;49.160;8.580;2023-04-03T08:41:36;7.00;1.00
46490;DHT22;32204;49.160;8.580;2023-04-03T08:49:51;7.10;1.00
46490;DHT22;32204;49.160;8.580;2023-04-03T08:52:18;7.20;99.90
46490;DHT22;32204;49.160;8.580;2023-04-03T08:54:53;7.50;99.90
46490;DHT22;32204;49.160;8.580;2023-04-03T08:57:29;7.60;99.90
46490;DHT22;32204;49.160;8.580;2023-04-03T08:59:58;7.60;99.90
46490;DHT22;32204;49.160;8.580;2023-04-03T09:04:52;7.90;99.90
46490;DHT22;32204;49.160;8.580;2023-04-03T09:07:25;8.10;99.90
46490;DHT22;32204;49.160;8.580;2023-04-03T09:09:55;8.30;99.90
46490;DHT22;32204;49.160;8.580;2023-04-03T09:12:36;8.40;33.30
46490;DHT22;32204;49.160;8.580;2023-04-03T09:15:17;8.50;70.80
46490;DHT22;32204;49.160;8.580;2023-04-03T09:18:06;8.70;1.00
46490;DHT22;32204;49.160;8.580;2023-04-03T09:23:36;8.20;1.00
46490;DHT22;32204;49.160;8.580;2023-04-03T09:26:16;8.00;82.50
46490;DHT22;32204;49.160;8.580;2023-04-03T09:28:42;8.00;83.00
46490;DHT22;32204;49.160;8.580;2023-04-03T09:31:36;8.20;5.10
46490;DHT22;32204;49.160;8.580;2023-04-03T09:34:18;8.40;1.00
46490;DHT22;32204;49.160;8.580;2023-04-03T09:36:49;8.20;1.00
46490;DHT22;32204;49.160;8.580;2023-04-03T09:39:23;8.00;1.00
46490;DHT22;32204;49.160;8.580;2023-04-03T09:42:04;7.90;1.00
46490;DHT22;32204;49.160;8.580;2023-04-03T09:44:36;8.00;1.00
46490;DHT22;32204;49.160;8.580;2023-04-03T09:47:24;8.30;1.00
46490;DHT22;32204;49.160;8.580;2023-04-03T09:49:50;8.60;1.00
46490;DHT22;32204;49.160;8.580;2023-04-03T09:52:24;8.80;1.00
46490;DHT22;32204;49.160;8.580;2023-04-03T09:54:50;8.70;1.00
46490;DHT22;32204;49.160;8.580;2023-04-03T09:57:16;8.70;1.00
46490;DHT22;32204;49.160;8.580;2023-04-03T10:00:03;8.70;1.00
46490;DHT22;32204;49.160;8.580;2023-04-03T10:02:39;8.50;1.00
46490;DHT22;32204;49.160;8.580;2023-04-03T10:10:36;8.20;1.00
46490;DHT22;32204;49.160;8.580;2023-04-03T10:13:12;8.20;1.00
46490;DHT22;32204;49.160;8.580;2023-04-03T10:16:08;8.30;1.00
46490;DHT22;32204;49.160;8.580;2023-04-03T10:21:28;8.20;1.00
46490;DHT22;32204;49.160;8.580;2023-04-03T10:24:05;8.10;1.00
46490;DHT22;32204;49.160;8.580;2023-04-03T10:34:47;8.20;1.00
46490;DHT22;32204;49.160;8.580;2023-04-03T10:37:24;8.30;1.00
46490;DHT22;32204;49.160;8.580;2023-04-03T10:39:59;8.40;1.00
46490;DHT22;32204;49.160;8.580;2023-04-03T10:42:40;8.40;1.00
46490;DHT22;32204;49.160;8.580;2023-04-03T10:51:00;8.30;1.00
46490;DHT22;32204;49.160;8.580;2023-04-03T10:56:30;8.20;1.00
46490;DHT22;32204;49.160;8.580;2023-04-03T10:59:17;8.20;1.00
46490;DHT22;32204;49.160;8.580;2023-04-03T11:01:46;8.20;1.00
46490;DHT22;32204;49.160;8.580;2023-04-03T11:04:15;8.20;1.00
46490;DHT22;32204;49.160;8.580;2023-04-03T11:06:46;8.30;1.00
46490;DHT22;32204;49.160;8.580;2023-04-03T11:11:48;8.50;1.00
46490;DHT22;32204;49.160;8.580;2023-04-03T11:14:27;8.60;1.00
46490;DHT22;32204;49.160;8.580;2023-04-03T11:22:35;8.50;1.00
46490;DHT22;32204;49.160;8.580;2023-04-03T11:27:43;8.50;1.00
46490;DHT22;32204;49.160;8.580;2023-04-03T11:30:34;8.50;1.00
46490;DHT22;32204;49.160;8.580;2023-04-03T11:36:02;8.60;1.00
46490;DHT22;32204;49.160;8.580;2023-04-03T11:38:33;8.70;1.00
46490;DHT22;32204;49.160;8.580;2023-04-03T11:41:02;8.80;1.00
46490;DHT22;32204;49.160;8.580;2023-04-03T11:43:30;9.00;1.00
46490;DHT22;32204;49.160;8.580;2023-04-03T11:46:04;9.00;1.00
46490;DHT22;32204;49.160;8.580;2023-04-03T11:53:53;8.70;1.00
46490;DHT22;32204;49.160;8.580;2023-04-03T12:04:19;8.40;1.00
46490;DHT22;32204;49.160;8.580;2023-04-03T12:10:13;8.30;1.00
46490;DHT22;32204;49.160;8.580;2023-04-03T12:14:55;8.70;1.00
46490;DHT22;32204;49.160;8.580;2023-04-03T12:17:27;8.60;1.00
46490;DHT22;32204;49.160;8.580;2023-04-03T12:19:54;8.50;1.00
46490;DHT22;32204;49.160;8.580;2023-04-03T12:22:21;8.50;1.00
46490;DHT22;32204;49.160;8.580;2023-04-03T12:24:50;8.50;1.00
46490;DHT22;32204;49.160;8.580;2023-04-03T12:27:21;8.50;1.00
46490;DHT22;32204;49.160;8.580;2023-04-03T12:35:35;8.60;1.00
46490;DHT22;32204;49.160;8.580;2023-04-03T12:40:43;8.50;1.00
46490;DHT22;32204;49.160;8.580;2023-04-03T12:46:17;8.40;1.00
46490;DHT22;32204;49.160;8.580;2023-04-03T12:51:35;8.50;1.00
46490;DHT22;32204;49.160;8.580;2023-04-03T12:54:12;8.60;1.00
46490;DHT22;32204;49.160;8.580;2023-04-03T12:56:39;8.40;1.00
46490;DHT22;32204;49.160;8.580;2023-04-03T12:59:23;8.40;1.00
46490;DHT22;32204;49.160;8.580;2023-04-03T13:01:58;8.50;1.00
46490;DHT22;32204;49.160;8.580;2023-04-03T13:04:24;8.80;1.00
46490;DHT22;32204;49.160;8.580;2023-04-03T13:06:50;9.20;1.00
46490;DHT22;32204;49.160;8.580;2023-04-03T13:09:27;9.20;1.00
46490;DHT22;32204;49.160;8.580;2023-04-03T13:12:02;8.80;1.00
46490;DHT22;32204;49.160;8.580;2023-04-03T13:14:28;8.70;1.00
46490;DHT22;32204;49.160;8.580;2023-04-03T13:17:16;8.70;1.00
46490;DHT22;32204;49.160;8.580;2023-04-03T13:19:42;8.80;1.00
46490;DHT22;32204;49.160;8.580;2023-04-03T13:24:51;9.00;1.00
46490;DHT22;32204;49.160;8.580;2023-04-03T13:27:17;9.00;1.00
46490;DHT22;32204;49.160;8.580;2023-04-03T13:29:50;8.80;1.00
46490;DHT22;32204;49.160;8.580;2023-04-03T13:32:20;8.80;1.00
46490;DHT22;32204;49.160;8.580;2023-04-03T13:34:46;9.00;1.00
46490;DHT22;32204;49.160;8.580;2023-04-03T13:37:28;8.90;1.00
46490;DHT22;32204;49.160;8.580;2023-04-03T13:40:13;9.00;1.00
46490;DHT22;32204;49.160;8.580;2023-04-03T13:42:40;9.00;1.00
46490;DHT22;32204;49.160;8.580;2023-04-03T13:45:26;9.00;1.00
46490;DHT22;32204;49.160;8.580;2023-04-03T13:48:14;9.00;1.00
46490;DHT22;32204;49.160;8.580;2023-04-03T13:53:24;8.80;1.00
46490;DHT22;32204;49.160;8.580;2023-04-03T13:58:30;8.60;1.00
46490;DHT22;32204;49.160;8.580;2023-04-03T14:04:01;8.70;1.00
46490;DHT22;32204;49.160;8.580;2023-04-03T14:06:28;8.60;1.00
46490;DHT22;32204;49.160;8.580;2023-04-03T14:08:54;8.70;1.00
46490;DHT22;32204;49.160;8.580;2023-04-03T14:11:26;8.80;1.00
46490;DHT22;32204;49.160;8.580;2023-04-03T14:14:06;8.90;1.00
46490;DHT22;32204;49.160;8.580;2023-04-03T14:16:39;9.00;99.90
46490;DHT22;32204;49.160;8.580;2023-04-03T14:19:06;9.20;99.90
46490;DHT22;32204;49.160;8.580;2023-04-03T14:21:31;9.10;99.90
46490;DHT22;32204;49.160;8.580;2023-04-03T14:23:57;9.20;99.90
46490;DHT22;32204;49.160;8.580;2023-04-03T14:26:24;9.00;1.00
46490;DHT22;32204;49.160;8.580;2023-04-03T14:28:54;8.80;99.90
46490;DHT22;32204;49.160;8.580;2023-04-03T14:31:21;8.70;99.90
46490;DHT22;32204;49.160;8.580;2023-04-03T14:33:47;8.90;99.90
46490;DHT22;32204;49.160;8.580;2023-04-03T14:36:25;9.00;99.90
46490;DHT22;32204;49.160;8.580;2023-04-03T14:38:52;9.10;99.90
46490;DHT22;32204;49.160;8.580;2023-04-03T14:41:21;9.10;99.90
46490;DHT22;32204;49.160;8.580;2023-04-03T14:43:48;9.40;99.90
46490;DHT22;32204;49.160;8.580;2023-04-03T14:46:24;9.70;99.90
46490;DHT22;32204;49.160;8.580;2023-04-03T14:48:51;10.00;99.90
46490;DHT22;32204;49.160;8.580;2023-04-03T14:51:17;9.70;99.90
46490;DHT22;32204;49.160;8.580;2023-04-03T14:53:44;9.40;1.00
46490;DHT22;32204;49.160;8.580;2023-04-03T14:56:16;9.20;99.90
46490;DHT22;32204;49.160;8.580;2023-04-03T14:58:42;9.20;1.00
46490;DHT22;32204;49.160;8.580;2023-04-03T15:01:10;9.50;1.00
46490;DHT22;32204;49.160;8.580;2023-04-03T15:03:37;9.50;1.00
46490;DHT22;32204;49.160;8.580;2023-04-03T15:06:03;9.60;1.00
46490;DHT22;32204;49.160;8.580;2023-04-03T15:08:29;9.90;1.00
46490;DHT22;32204;49.160;8.580;2023-04-03T15:10:55;10.00;1.00
46490;DHT22;32204;49.160;8.580;2023-04-03T15:13:22;10.10;1.00
46490;DHT22;32204;49.160;8.580;2023-04-03T15:15:49;10.10;1.00
46490;DHT22;32204;49.160;8.580;2023-04-03T15:18:20;10.30;1.00
46490;DHT22;32204;49.160;8.580;2023-04-03T15:20:47;10.10;1.00
46490;DHT22;32204;49.160;8.580;2023-04-03T15:23:14;10.00;1.00
46490;DHT22;32204;49.160;8.580;2023-04-03T15:25:46;9.70;1.00
46490;DHT22;32204;49.160;8.580;2023-04-03T15:28:43;9.80;1.00
46490;DHT22;32204;49.160;8.580;2023-04-03T15:31:08;10.00;1.00
46490;DHT22;32204;49.160;8.580;2023-04-03T15:33:35;9.80;1.00
46490;DHT22;32204;49.160;8.580;2023-04-03T15:36:01;9.70;1.00
46490;DHT22;32204;49.160;8.580;2023-04-03T15:38:26;9.70;1.00
46490;DHT22;32204;49.160;8.580;2023-04-03T15:40:54;9.70;1.00
46490;DHT22;32204;49.160;8.580;2023-04-03T15:43:23;9.60;1.00
46490;DHT22;32204;49.160;8.580;2023-04-03T15:45:49;9.70;1.00
46490;DHT22;32204;49.160;8.580;2023-04-03T15:48:16;9.80;1.00
46490;DHT22;32204;49.160;8.580;2023-04-03T15:50:42;9.90;1.00
46490;DHT22;32204;49.160;8.580;2023-04-03T15:53:08;9.80;1.00
46490;DHT22;32204;49.160;8.580;2023-04-03T15:55:37;9.80;1.00
46490;DHT22;32204;49.160;8.580;2023-04-03T15:58:03;9.80;1.00
46490;DHT22;32204;49.160;8.580;2023-04-03T16:00:29;9.90;1.00
46490;DHT22;32204;49.160;8.580;2023-04-03T16:03:00;9.90;1.00
46490;DHT22;32204;49.160;8.580;2023-04-03T16:05:27;9.70;1.00
46490;DHT22;32204;49.160;8.580;2023-04-03T16:07:53;9.50;1.00
46490;DHT22;32204;49.160;8.580;2023-04-03T16:10:20;9.40;1.00
46490;DHT22;32204;49.160;8.580;2023-04-03T16:12:46;9.40;1.00
46490;DHT22;32204;49.160;8.580;2023-04-03T16:15:12;9.40;1.00
46490;DHT22;32204;49.160;8.580;2023-04-03T16:17:39;9.50;1.00
46490;DHT22;32204;49.160;8.580;2023-04-03T16:20:07;9.60;1.00
46490;DHT22;32204;49.160;8.580;2023-04-03T16:22:34;9.70;99.90
46490;DHT22;32204;49.160;8.580;2023-04-03T16:24:59;9.50;99.90
46490;DHT22;32204;49.160;8.580;2023-04-03T16:27:25;9.40;99.90
46490;DHT22;32204;49.160;8.580;2023-04-03T16:29:56;9.30;1.00
46490;DHT22;32204;49.160;8.580;2023-04-03T16:32:22;9.40;1.00
46490;DHT22;32204;49.160;8.580;2023-04-03T16:34:49;9.30;1.00
46490;DHT22;32204;49.160;8.580;2023-04-03T16:37:15;9.30;1.00
46490;DHT22;32204;49.160;8.580;2023-04-03T16:39:41;9.30;1.00
46490;DHT22;32204;49.160;8.580;2023-04-03T16:42:07;9.30;1.00
46490;DHT22;32204;49.160;8.580;2023-04-03T16:44:34;9.10;1.00
46490;DHT22;32204;49.160;8.580;2023-04-03T16:47:00;9.10;1.00
46490;DHT22;32204;49.160;8.580;2023-04-03T16:49:26;9.10;1.00
46490;DHT22;32204;49.160;8.580;2023-04-03T16:51:55;9.20;1.00
46490;DHT22;32204;49.160;8.580;2023-04-03T16:54:21;9.10;1.00
46490;DHT22;32204;49.160;8.580;2023-04-03T16:56:46;9.10;1.00
46490;DHT22;32204;49.160;8.580;2023-04-03T16:59:12;9.10;1.00
46490;DHT22;32204;49.160;8.580;2023-04-03T17:01:37;9.00;1.00
46490;DHT22;32204;49.160;8.580;2023-04-03T17:04:03;8.90;1.00
46490;DHT22;32204;49.160;8.580;2023-04-03T17:06:28;8.80;1.00
46490;DHT22;32204;49.160;8.580;2023-04-03T17:08:54;8.80;1.00
46490;DHT22;32204;49.160;8.580;2023-04-03T17:11:20;8.60;1.00
46490;DHT22;32204;49.160;8.580;2023-04-03T17:13:45;8.60;99.90
46490;DHT22;32204;49.160;8.580;2023-04-03T17:16:14;8.50;99.90
46490;DHT22;32204;49.160;8.580;2023-04-03T17:18:40;8.40;99.90
46490;DHT22;32204;49.160;8.580;2023-04-03T17:21:06;8.30;1.00
46490;DHT22;32204;49.160;8.580;2023-04-03T17:23:33;8.20;1.00
46490;DHT22;32204;49.160;8.580;2023-04-03T17:26:01;8.20;1.00
46490;DHT22;32204;49.160;8.580;2023-04-03T17:28:27;8.10;1.00
46490;DHT22;32204;49.160;8.580;2023-04-03T17:31:00;8.10;1.00
46490;DHT22;32204;49.160;8.580;2023-04-03T17:33:26;8.10;1.00
46490;DHT22;32204;49.160;8.580;2023-04-03T17:35:56;8.00;1.00
46490;DHT22;32204;49.160;8.580;2023-04-03T17:38:22;8.00;1.00
46490;DHT22;32204;49.160;8.580;2023-04-03T17:40:47;8.00;1.00
46490;DHT22;32204;49.160;8.580;2023-04-03T17:43:13;7.90;1.00
46490;DHT22;32204;49.160;8.580;2023-04-03T17:45:39;7.80;99.90